createdAt,value
2022-08-02T00:00:55.529Z,50.05
2022-08-02T00:03:24.678Z,49.60
2022-08-02T00:05:53.601Z,50.07
2022-08-02T00:08:21.352Z,49.90
2022-08-02T00:10:48.463Z,50.34
2022-08-02T00:13:15.320Z,50.33
2022-08-02T00:15:42.698Z,50.31
2022-08-02T00:18:09.732Z,50.55
2022-08-02T00:20:37.406Z,50.77
2022-08-02T00:23:04.181Z,50.83
2022-08-02T00:25:31.738Z,51.61
2022-08-02T00:27:58.527Z,51.27
2022-08-02T00:30:25.248Z,51.26
2022-08-02T00:32:52.341Z,51.43
2022-08-02T00:35:19.390Z,50.94
2022-08-02T00:37:46.650Z,51.38
2022-08-02T00:40:13.794Z,51.29
2022-08-02T00:42:40.621Z,50.96
2022-08-02T00:45:07.881Z,51.42
2022-08-02T00:47:35.045Z,51.75
2022-08-02T00:50:01.981Z,51.69
2022-08-02T00:52:28.687Z,51.08
2022-08-02T00:54:55.672Z,50.25
2022-08-02T00:57:22.396Z,50.40
2022-08-02T00:59:49.104Z,51.07
2022-08-02T01:02:16.722Z,51.20
2022-08-02T01:04:43.895Z,51.34
2022-08-02T01:07:12.916Z,51.71
2022-08-02T01:09:46.377Z,51.67
2022-08-02T01:12:13.925Z,51.86
2022-08-02T01:14:42.526Z,51.69
2022-08-02T01:17:10.900Z,50.97
2022-08-02T01:19:44.330Z,51.98
2022-08-02T01:22:15.060Z,51.76
2022-08-02T01:25:14.272Z,52.26
2022-08-02T01:27:52.295Z,51.92
2022-08-02T01:30:19.211Z,52.20
2022-08-02T01:32:49.353Z,52.68
2022-08-02T01:35:17.614Z,52.17
2022-08-02T01:37:45.335Z,52.20
2022-08-02T01:40:18.298Z,52.37
2022-08-02T01:42:46.612Z,52.76
2022-08-02T01:45:13.956Z,52.94
2022-08-02T01:47:41.551Z,52.49
2022-08-02T01:50:08.872Z,52.68
2022-08-02T01:52:38.150Z,53.10
2022-08-02T01:55:06.827Z,53.60
2022-08-02T01:57:39.292Z,53.97
2022-08-02T02:00:10.524Z,53.43
2022-08-02T02:02:38.104Z,53.37
2022-08-02T02:05:05.901Z,53.48
2022-08-02T02:07:34.547Z,53.34
2022-08-02T02:10:01.887Z,53.38
2022-08-02T02:12:28.896Z,53.89
2022-08-02T02:14:55.622Z,53.54
2022-08-02T02:17:50.509Z,53.85
2022-08-02T02:20:14.466Z,53.53
2022-08-02T02:22:41.645Z,52.92
2022-08-02T02:25:11.454Z,53.27
2022-08-02T02:27:40.350Z,53.57
2022-08-02T02:30:11.481Z,53.99
2022-08-02T02:32:38.515Z,53.13
2022-08-02T02:35:06.601Z,53.86
2022-08-02T02:37:33.638Z,54.30
2022-08-02T02:40:00.897Z,54.36
2022-08-02T02:42:29.303Z,53.34
2022-08-02T02:44:56.027Z,53.33
2022-08-02T02:47:23.061Z,54.01
2022-08-02T02:50:08.769Z,53.49
2022-08-02T02:52:35.788Z,53.97
2022-08-02T02:55:02.512Z,54.75
2022-08-02T02:57:30.329Z,54.85
2022-08-02T02:59:58.758Z,53.74
2022-08-02T03:02:25.535Z,53.67
2022-08-02T03:04:57.474Z,54.27
2022-08-02T03:07:25.473Z,53.95
2022-08-02T03:09:54.323Z,53.62
2022-08-02T03:12:25.895Z,54.30
2022-08-02T03:15:01.390Z,54.74
2022-08-02T03:18:00.760Z,54.70
2022-08-02T03:20:27.756Z,54.70
2022-08-02T03:22:54.488Z,54.40
2022-08-02T03:25:21.264Z,54.68
2022-08-02T03:27:48.363Z,53.92
2022-08-02T03:30:15.306Z,54.40
2022-08-02T03:32:43.393Z,54.49
2022-08-02T03:35:10.780Z,54.39
2022-08-02T03:37:37.940Z,54.45
2022-08-02T03:40:08.739Z,54.37
2022-08-02T03:42:35.727Z,54.09
2022-08-02T03:45:08.156Z,53.97
2022-08-02T03:47:36.370Z,54.64
2022-08-02T03:50:03.177Z,54.79
2022-08-02T03:52:30.006Z,53.11
2022-08-02T03:54:57.377Z,53.86
2022-08-02T03:57:24.169Z,54.10
2022-08-02T03:59:50.887Z,54.42
2022-08-02T04:02:17.883Z,55.09
2022-08-02T04:04:44.915Z,54.63
2022-08-02T04:07:11.651Z,54.69
2022-08-02T04:09:39.404Z,54.12
2022-08-02T04:12:06.560Z,54.81
2022-08-02T04:14:36.259Z,55.76
2022-08-02T04:17:04.902Z,55.13
2022-08-02T04:19:32.282Z,54.85
2022-08-02T04:22:00.349Z,55.02
2022-08-02T04:24:28.025Z,54.10
2022-08-02T04:26:55.324Z,54.59
2022-08-02T04:29:26.176Z,54.40
2022-08-02T04:31:53.834Z,53.98
2022-08-02T04:34:20.848Z,53.89
2022-08-02T04:36:47.632Z,53.80
2022-08-02T04:39:15.118Z,54.09
2022-08-02T04:41:44.188Z,54.10
2022-08-02T04:44:11.731Z,53.99
2022-08-02T04:46:39.076Z,54.17
2022-08-02T04:49:06.406Z,53.39
2022-08-02T04:51:41.809Z,52.27
2022-08-02T04:54:11.119Z,52.89
2022-08-02T04:56:38.235Z,53.33
2022-08-02T04:59:05.301Z,52.86
2022-08-02T05:01:32.506Z,52.49
2022-08-02T05:03:59.389Z,52.46
2022-08-02T05:06:26.586Z,52.88
2022-08-02T05:08:53.893Z,52.54
2022-08-02T05:11:22.164Z,52.84
2022-08-02T05:13:57.609Z,52.45
2022-08-02T05:16:31.623Z,52.40
2022-08-02T05:19:00.021Z,52.59
2022-08-02T05:21:27.149Z,52.88
2022-08-02T05:23:53.950Z,53.04
2022-08-02T05:26:20.737Z,52.84
2022-08-02T05:28:48.292Z,51.91
2022-08-02T05:31:15.038Z,52.11
2022-08-02T05:33:42.064Z,55.39
2022-08-02T05:36:09.715Z,53.69
2022-08-02T05:38:37.624Z,52.33
2022-08-02T05:41:05.406Z,52.18
2022-08-02T05:43:32.486Z,52.17
2022-08-02T05:45:59.496Z,51.46
2022-08-02T05:48:31.124Z,50.72
2022-08-02T05:51:07.151Z,50.63
2022-08-02T05:53:36.925Z,51.06
2022-08-02T05:56:18.998Z,51.28
2022-08-02T05:58:46.181Z,50.95
2022-08-02T06:01:13.679Z,51.20
2022-08-02T06:03:43.633Z,50.38
2022-08-02T06:06:11.721Z,50.49
2022-08-02T06:08:41.083Z,50.29
2022-08-02T06:11:15.088Z,49.11
2022-08-02T06:13:42.117Z,49.39
2022-08-02T06:16:14.080Z,48.90
2022-08-02T06:18:42.499Z,48.58
2022-08-02T06:22:33.271Z,48.84
2022-08-02T06:23:59.509Z,48.89
2022-08-02T06:26:31.968Z,48.92
2022-08-02T06:28:59.469Z,47.35
2022-08-02T06:31:26.583Z,47.52
2022-08-02T06:33:53.562Z,47.28
2022-08-02T06:36:43.212Z,46.38
2022-08-02T06:39:14.792Z,45.49
2022-08-02T06:41:42.832Z,45.10
2022-08-02T06:44:45.566Z,44.64
2022-08-02T06:47:11.197Z,43.99
2022-08-02T06:49:52.302Z,43.02
2022-08-02T06:52:28.944Z,43.90
2022-08-02T06:54:57.216Z,41.69
2022-08-02T06:57:24.256Z,40.72
2022-08-02T06:59:51.335Z,41.60
2022-08-02T07:02:18.099Z,39.97
2022-08-02T07:04:45.126Z,39.71
2022-08-02T07:07:12.403Z,37.58
2022-08-02T07:09:39.154Z,39.54
2022-08-02T07:12:23.523Z,39.34
2022-08-02T07:14:50.284Z,40.81
2022-08-02T07:17:17.604Z,39.15
2022-08-02T07:19:44.674Z,38.50
2022-08-02T07:22:13.077Z,38.79
2022-08-02T07:24:42.221Z,40.03
2022-08-02T07:27:11.575Z,35.06
2022-08-02T07:29:46.415Z,34.88
2022-08-02T07:32:16.880Z,35.85
2022-08-02T07:34:50.997Z,37.08
2022-08-02T07:37:35.693Z,35.27
2022-08-02T07:40:12.414Z,37.02
2022-08-02T07:42:41.737Z,34.53
2022-08-02T07:45:08.865Z,32.21
2022-08-02T07:47:39.347Z,33.85
2022-08-02T07:50:06.657Z,33.53
2022-08-02T07:52:33.800Z,34.04
2022-08-02T07:55:01.379Z,35.34
2022-08-02T07:57:28.852Z,34.17
2022-08-02T07:59:55.585Z,34.52
2022-08-02T08:02:24.759Z,33.31
2022-08-02T08:04:52.673Z,33.85
2022-08-02T08:07:23.287Z,32.53
2022-08-02T08:10:01.525Z,33.43
2022-08-02T08:12:30.540Z,32.94
2022-08-02T08:15:00.929Z,32.22
2022-08-02T08:17:29.053Z,32.47
2022-08-02T08:19:56.300Z,31.25
2022-08-02T08:22:23.635Z,29.75
2022-08-02T08:24:51.130Z,31.12
2022-08-02T08:27:20.014Z,31.35
2022-08-02T08:29:47.508Z,31.43
2022-08-02T08:32:18.135Z,28.72
2022-08-02T08:34:48.235Z,29.75
2022-08-02T08:37:17.807Z,30.36
2022-08-02T08:39:58.541Z,29.93
2022-08-02T08:42:26.830Z,29.64
2022-08-02T08:44:54.588Z,30.35
2022-08-02T08:47:21.396Z,30.06
2022-08-02T08:49:52.596Z,28.76
2022-08-02T08:52:20.282Z,29.30
2022-08-02T08:54:48.594Z,29.67
2022-08-02T08:57:16.857Z,29.27
2022-08-02T08:59:43.618Z,26.85
2022-08-02T09:02:17.774Z,25.78
2022-08-02T09:04:53.015Z,26.69
2022-08-02T09:07:22.637Z,26.03
2022-08-02T09:09:49.752Z,26.44
2022-08-02T09:12:16.752Z,24.54
2022-08-02T09:14:43.468Z,25.54
2022-08-02T09:17:12.663Z,26.03
2022-08-02T09:19:39.991Z,25.47
2022-08-02T09:22:14.806Z,24.91
2022-08-02T09:24:42.268Z,25.26
2022-08-02T09:27:16.362Z,25.63
2022-08-02T09:30:13.595Z,24.56
2022-08-02T09:32:49.956Z,25.51
2022-08-02T09:36:06.613Z,24.57
2022-08-02T09:38:19.333Z,24.74
2022-08-02T09:40:46.313Z,25.14
2022-08-02T09:43:14.594Z,24.46
2022-08-02T09:45:41.396Z,23.96
2022-08-02T09:48:08.802Z,25.20
2022-08-02T09:50:41.084Z,24.69
2022-08-02T09:53:13.048Z,24.25
2022-08-02T09:55:40.408Z,23.74
2022-08-02T09:58:17.553Z,25.67
2022-08-02T10:00:59.109Z,25.12
2022-08-02T10:03:35.128Z,25.51
2022-08-02T10:06:04.454Z,27.52
2022-08-02T10:08:33.537Z,28.17
2022-08-02T10:11:01.012Z,29.51
2022-08-02T10:13:31.807Z,28.30
2022-08-02T10:15:59.027Z,28.60
2022-08-02T10:18:38.128Z,28.20
2022-08-02T10:21:18.471Z,29.37
2022-08-02T10:23:46.225Z,28.67
2022-08-02T10:26:14.920Z,30.86
2022-08-02T10:28:41.642Z,28.16
2022-08-02T10:31:08.328Z,28.68
2022-08-02T10:33:36.244Z,30.49
2022-08-02T10:36:06.810Z,31.33
2022-08-02T10:38:38.107Z,30.53
2022-08-02T10:41:05.408Z,33.20
2022-08-02T10:43:32.112Z,32.93
2022-08-02T10:46:17.357Z,31.04
2022-08-02T10:49:18.530Z,30.75
2022-08-02T10:51:54.792Z,29.91
2022-08-02T10:54:23.984Z,31.24
2022-08-02T10:56:51.522Z,30.16
2022-08-02T10:59:36.309Z,31.96
2022-08-02T11:02:05.008Z,32.19
2022-08-02T11:04:37.896Z,35.78
2022-08-02T11:07:08.099Z,33.28
2022-08-02T11:09:34.946Z,34.46
2022-08-02T11:12:09.122Z,35.41
2022-08-02T11:14:37.556Z,32.12
2022-08-02T11:17:05.573Z,31.87
2022-08-02T11:19:34.138Z,32.56
2022-08-02T11:22:11.536Z,30.78
2022-08-02T11:24:41.495Z,31.36
2022-08-02T11:27:09.040Z,29.39
2022-08-02T11:29:38.691Z,33.12
2022-08-02T11:32:09.264Z,34.21
2022-08-02T11:34:38.207Z,32.62
2022-08-02T11:37:05.360Z,33.94
2022-08-02T11:39:33.139Z,33.32
2022-08-02T11:42:00.514Z,31.09
2022-08-02T11:44:27.911Z,32.71
2022-08-02T11:46:58.678Z,30.07
2022-08-02T11:49:25.833Z,31.16
2022-08-02T11:52:00.534Z,32.01
2022-08-02T11:54:28.822Z,31.30
2022-08-02T11:56:55.835Z,30.78
2022-08-02T11:59:25.916Z,29.43
2022-08-02T12:01:53.029Z,28.83
2022-08-02T12:04:22.890Z,30.32
2022-08-02T12:06:54.454Z,32.49
2022-08-02T12:09:23.220Z,33.02
2022-08-02T12:11:51.664Z,31.54
2022-08-02T12:14:18.539Z,33.83
2022-08-02T12:17:04.216Z,32.54
2022-08-02T12:19:30.965Z,32.43
2022-08-02T12:22:16.816Z,33.29
2022-08-02T12:24:49.977Z,31.72
2022-08-02T12:27:36.447Z,32.99
2022-08-02T12:30:09.263Z,31.43
2022-08-02T12:32:36.980Z,33.76
2022-08-02T12:35:13.963Z,33.50
2022-08-02T12:37:42.645Z,33.66
2022-08-02T12:40:24.171Z,31.74
2022-08-02T12:42:57.422Z,30.06
2022-08-02T12:45:25.714Z,27.75
2022-08-02T12:47:58.502Z,27.04
2022-08-02T12:50:37.714Z,27.18
2022-08-02T12:53:13.232Z,26.62
2022-08-02T12:55:59.428Z,27.34
2022-08-02T12:58:30.117Z,26.49
2022-08-02T13:01:00.426Z,26.28
2022-08-02T13:04:12.277Z,26.22
2022-08-02T13:06:39.885Z,23.72
2022-08-02T13:09:03.078Z,25.33
2022-08-02T13:11:30.122Z,25.89
2022-08-02T13:13:56.987Z,24.71
2022-08-02T13:16:30.561Z,24.17
2022-08-02T13:18:58.816Z,23.87
2022-08-02T13:21:39.708Z,23.51
2022-08-02T13:24:33.252Z,22.88
2022-08-02T13:26:55.120Z,23.81
2022-08-02T13:29:22.194Z,22.94
2022-08-02T13:31:48.878Z,22.92
2022-08-02T13:34:16.698Z,22.33
2022-08-02T13:36:43.737Z,24.00
2022-08-02T13:39:11.993Z,23.74
2022-08-02T13:41:39.949Z,22.61
2022-08-02T13:44:10.300Z,24.12
2022-08-02T13:46:45.060Z,23.34
2022-08-02T13:49:18.370Z,23.64
2022-08-02T13:51:46.905Z,23.85
2022-08-02T13:54:14.601Z,23.96
2022-08-02T13:56:41.507Z,24.34
2022-08-02T13:59:54.304Z,23.79
2022-08-02T14:01:57.222Z,23.63
2022-08-02T14:04:24.364Z,24.41
2022-08-02T14:06:51.180Z,23.76
2022-08-02T14:09:18.086Z,26.48
2022-08-02T14:11:45.760Z,26.18
2022-08-02T14:14:16.663Z,26.03
2022-08-02T14:16:46.959Z,23.58
2022-08-02T14:19:15.641Z,25.28
2022-08-02T14:21:48.501Z,24.50
2022-08-02T14:24:16.366Z,24.15
2022-08-02T14:26:43.786Z,24.49
2022-08-02T14:29:10.648Z,25.54
2022-08-02T14:31:41.777Z,26.22
2022-08-02T14:34:10.678Z,24.31
2022-08-02T14:36:38.703Z,24.33
2022-08-02T14:39:05.465Z,23.72
2022-08-02T14:41:33.992Z,24.32
2022-08-02T14:44:20.814Z,23.18
2022-08-02T14:46:47.499Z,24.49
2022-08-02T14:49:25.276Z,25.40
2022-08-02T14:51:54.322Z,25.47
2022-08-02T14:54:26.792Z,24.79
2022-08-02T14:56:57.347Z,24.55
2022-08-02T14:59:24.150Z,24.35
2022-08-02T15:01:50.934Z,25.63
2022-08-02T15:04:18.557Z,24.49
2022-08-02T15:06:45.264Z,24.16
2022-08-02T15:09:13.576Z,26.35
2022-08-02T15:11:48.316Z,26.24
2022-08-02T15:14:16.100Z,25.20
2022-08-02T15:16:56.417Z,25.18
2022-08-02T15:19:28.742Z,25.06
2022-08-02T15:22:15.781Z,24.94
2022-08-02T15:24:44.198Z,25.12
2022-08-02T15:27:13.751Z,25.42
2022-08-02T15:29:41.081Z,26.71
2022-08-02T15:32:07.925Z,25.90
2022-08-02T15:34:34.913Z,25.62
2022-08-02T15:37:01.891Z,25.58
2022-08-02T15:39:28.601Z,25.40
2022-08-02T15:41:55.601Z,24.69
2022-08-02T15:44:22.363Z,25.23
2022-08-02T15:46:49.110Z,25.48
2022-08-02T15:49:16.274Z,25.36
2022-08-02T15:51:43.379Z,25.39
2022-08-02T15:54:10.086Z,24.73
2022-08-02T15:56:37.027Z,24.99
2022-08-02T15:59:03.742Z,24.20
2022-08-02T16:01:37.186Z,25.68
2022-08-02T16:04:06.068Z,26.00
2022-08-02T16:06:34.014Z,25.50
2022-08-02T16:09:00.814Z,25.47
2022-08-02T16:11:27.878Z,25.09
2022-08-02T16:13:54.904Z,25.14
2022-08-02T16:16:26.199Z,24.98
2022-08-02T16:18:53.341Z,24.34
2022-08-02T16:21:20.133Z,24.48
2022-08-02T16:23:59.183Z,25.22
2022-08-02T16:26:29.640Z,25.91
2022-08-02T16:28:56.698Z,25.31
2022-08-02T16:31:23.947Z,25.51
2022-08-02T16:33:56.305Z,25.32
2022-08-02T16:36:24.055Z,25.60
2022-08-02T16:38:51.463Z,26.20
2022-08-02T16:41:19.956Z,25.16
2022-08-02T16:43:46.705Z,25.56
2022-08-02T16:46:13.874Z,24.77
2022-08-02T16:48:41.043Z,24.94
2022-08-02T16:51:14.009Z,25.51
2022-08-02T16:56:30.508Z,25.20
2022-08-02T16:58:59.752Z,25.36
2022-08-02T17:01:27.698Z,25.86
2022-08-02T17:03:56.028Z,26.41
2022-08-02T17:06:26.156Z,25.38
2022-08-02T17:08:55.093Z,26.27
2022-08-02T17:11:23.869Z,26.13
2022-08-02T17:13:51.736Z,26.69
2022-08-02T17:16:20.759Z,26.35
2022-08-02T17:18:54.113Z,26.16
2022-08-02T17:21:21.211Z,26.90
2022-08-02T17:24:05.793Z,25.87
2022-08-02T17:26:36.097Z,26.26
2022-08-02T17:29:15.663Z,26.21
2022-08-02T17:32:04.671Z,26.17
2022-08-02T17:34:31.892Z,26.21
2022-08-02T17:36:58.855Z,26.33
2022-08-02T17:39:33.553Z,27.33
2022-08-02T17:42:01.379Z,26.53
2022-08-02T17:44:36.612Z,26.17
2022-08-02T17:47:06.616Z,25.64
2022-08-02T17:49:33.517Z,25.77
2022-08-02T17:52:48.345Z,25.86
2022-08-02T17:54:48.944Z,26.08
2022-08-02T17:57:18.874Z,25.93
2022-08-02T18:00:04.178Z,26.86
2022-08-02T18:02:31.727Z,26.22
2022-08-02T18:04:58.435Z,26.73
2022-08-02T18:07:25.413Z,26.33
2022-08-02T18:09:57.053Z,26.96
2022-08-02T18:12:26.537Z,26.88
2022-08-02T18:14:55.441Z,27.28
2022-08-02T18:17:22.478Z,27.18
2022-08-02T18:19:53.887Z,27.18
2022-08-02T18:22:25.062Z,26.91
2022-08-02T18:24:54.002Z,27.99
2022-08-02T18:27:21.033Z,26.89
2022-08-02T18:29:48.194Z,27.22
2022-08-02T18:33:53.750Z,27.63
2022-08-02T18:35:16.979Z,28.09
2022-08-02T18:37:45.538Z,28.43
2022-08-02T18:40:16.297Z,29.36
2022-08-02T18:42:43.123Z,29.78
2022-08-02T18:45:19.716Z,30.19
2022-08-02T18:47:50.771Z,30.39
2022-08-02T18:50:19.675Z,30.17
2022-08-02T18:52:48.021Z,29.51
2022-08-02T18:55:17.672Z,30.02
2022-08-02T18:58:19.717Z,29.98
2022-08-02T19:00:47.878Z,31.37
2022-08-02T19:03:19.342Z,31.96
2022-08-02T19:05:51.724Z,32.41
2022-08-02T19:08:25.393Z,32.73
2022-08-02T19:10:56.271Z,33.39
2022-08-02T19:13:24.430Z,33.94
2022-08-02T19:15:52.491Z,33.44
2022-08-02T19:18:20.247Z,34.12
2022-08-02T19:20:58.211Z,34.52
2022-08-02T19:23:29.827Z,34.25
2022-08-02T19:25:57.608Z,33.63
2022-08-02T19:28:25.819Z,34.85
2022-08-02T19:30:57.013Z,34.03
2022-08-02T19:34:06.574Z,34.55
2022-08-02T19:36:12.480Z,34.86
2022-08-02T19:38:45.598Z,35.11
2022-08-02T19:41:16.214Z,36.15
2022-08-02T19:44:25.846Z,36.38
2022-08-02T19:46:31.250Z,36.22
2022-08-02T19:48:59.709Z,36.78
2022-08-02T19:51:54.822Z,36.72
2022-08-02T19:54:18.623Z,34.99
2022-08-02T19:56:47.980Z,35.03
2022-08-02T19:59:14.686Z,35.23
2022-08-02T20:01:46.446Z,35.53
2022-08-02T20:04:22.831Z,35.47
2022-08-02T20:06:50.652Z,35.78
2022-08-02T20:09:21.244Z,35.90
2022-08-02T20:11:54.517Z,35.52
2022-08-02T20:14:37.154Z,36.33
2022-08-02T20:17:11.407Z,37.03
2022-08-02T20:19:39.029Z,36.89
2022-08-02T20:22:05.838Z,37.43
2022-08-02T20:24:33.859Z,37.10
2022-08-02T20:27:02.237Z,37.20
2022-08-02T20:29:43.622Z,37.27
2022-08-02T20:32:21.744Z,36.94
2022-08-02T20:34:50.454Z,37.34
2022-08-02T20:38:01.088Z,37.30
2022-08-02T20:40:05.099Z,37.16
2022-08-02T20:42:32.167Z,37.35
2022-08-02T20:45:00.026Z,37.15
2022-08-02T20:47:27.578Z,36.83
2022-08-02T20:50:31.203Z,37.19
2022-08-02T20:52:58.753Z,36.91
2022-08-02T20:55:27.012Z,37.05
2022-08-02T20:58:00.879Z,36.97
2022-08-02T21:00:28.903Z,36.79
2022-08-02T21:02:56.090Z,37.43
2022-08-02T21:05:26.868Z,38.80
2022-08-02T21:08:13.839Z,39.32
2022-08-02T21:10:41.853Z,39.22
2022-08-02T21:13:13.952Z,38.98
2022-08-02T21:15:45.996Z,37.99
2022-08-02T21:18:25.680Z,37.52
2022-08-02T21:21:01.810Z,37.27
2022-08-02T21:23:29.311Z,37.88
2022-08-02T21:25:58.026Z,38.93
2022-08-02T21:28:43.602Z,38.29
2022-08-02T21:31:12.403Z,38.65
2022-08-02T21:33:47.182Z,39.58
2022-08-02T21:36:30.639Z,39.62
2022-08-02T21:39:14.160Z,38.85
2022-08-02T21:41:46.709Z,39.31
2022-08-02T21:44:15.742Z,39.57
2022-08-02T21:46:48.792Z,40.44
2022-08-02T21:49:16.673Z,40.66
2022-08-02T21:51:48.989Z,40.76
2022-08-02T21:54:21.556Z,41.07
2022-08-02T21:56:53.091Z,40.36
2022-08-02T21:59:25.456Z,41.03
2022-08-02T22:01:54.661Z,41.75
2022-08-02T22:04:24.560Z,43.07
2022-08-02T22:06:51.364Z,41.99
2022-08-02T22:09:43.947Z,42.31
2022-08-02T22:12:06.473Z,42.46
2022-08-02T22:14:37.266Z,41.80
2022-08-02T22:17:09.125Z,42.42
2022-08-02T22:19:40.247Z,42.40
2022-08-02T22:22:28.471Z,42.60
2022-08-02T22:24:57.059Z,42.29
2022-08-02T22:28:35.976Z,42.85
2022-08-02T22:30:11.390Z,42.76
2022-08-02T22:32:57.368Z,42.97
2022-08-02T22:35:24.746Z,44.09
2022-08-02T22:38:16.482Z,43.82
2022-08-02T22:40:39.425Z,43.31
2022-08-02T22:43:06.672Z,42.95
2022-08-02T22:45:37.496Z,43.31
2022-08-02T22:48:05.177Z,43.14
2022-08-02T22:50:33.027Z,42.41
2022-08-02T22:52:59.968Z,42.69
2022-08-02T22:55:32.706Z,42.26
2022-08-02T22:57:59.672Z,42.53
2022-08-02T22:58:35.575Z,25.38
2022-08-02T23:00:26.492Z,42.71
2022-08-02T23:02:53.199Z,43.33
2022-08-02T23:05:21.515Z,43.99
2022-08-02T23:07:48.251Z,44.26
2022-08-02T23:10:15.008Z,44.29
2022-08-02T23:12:42.121Z,44.00
2022-08-02T23:15:10.508Z,43.61
2022-08-02T23:17:56.267Z,43.83
2022-08-02T23:20:23.405Z,44.31
2022-08-02T23:22:50.387Z,44.50
2022-08-02T23:25:17.313Z,44.56
2022-08-02T23:27:50.514Z,44.05
2022-08-02T23:30:18.262Z,44.46
2022-08-02T23:32:46.934Z,44.49
2022-08-02T23:35:17.525Z,44.61
2022-08-02T23:37:58.904Z,44.82
2022-08-02T23:40:40.434Z,44.67
2022-08-02T23:43:13.372Z,45.60
2022-08-02T23:45:42.896Z,45.46
2022-08-02T23:48:09.570Z,46.05
2022-08-02T23:50:36.311Z,45.69
2022-08-02T23:53:03.893Z,45.58
2022-08-02T23:55:31.294Z,45.74
2022-08-02T23:57:58.008Z,46.56
